createdAt,value
2018-07-28T00:03:58.893Z,20.00
2018-07-28T00:06:29.264Z,19.90
2018-07-28T00:08:59.579Z,19.80
2018-07-28T00:11:30.228Z,19.70
2018-07-28T00:14:00.670Z,19.70
2018-07-28T00:16:31.067Z,19.60
2018-07-28T00:19:01.412Z,19.60
2018-07-28T00:21:32.057Z,19.50
2018-07-28T00:24:02.496Z,19.40
2018-07-28T00:26:32.790Z,19.50
2018-07-28T00:29:03.173Z,19.50
2018-07-28T00:31:33.503Z,19.50
2018-07-28T00:34:04.125Z,19.50
2018-07-28T00:36:34.392Z,19.40
2018-07-28T00:39:08.640Z,19.50
2018-07-28T00:41:39.016Z,19.50
2018-07-28T00:44:09.428Z,19.50
2018-07-28T00:46:39.729Z,19.50
2018-07-28T00:49:10.124Z,19.40
2018-07-28T00:51:40.481Z,19.40
2018-07-28T00:54:10.849Z,19.40
2018-07-28T00:56:41.117Z,19.50
2018-07-28T00:59:11.442Z,19.50
2018-07-28T01:01:41.736Z,19.50
2018-07-28T01:04:12.053Z,19.50
2018-07-28T01:06:42.726Z,19.50
2018-07-28T01:09:13.444Z,19.60
2018-07-28T01:11:43.781Z,19.50
2018-07-28T01:14:14.027Z,19.50
2018-07-28T01:16:44.333Z,19.40
2018-07-28T01:19:14.643Z,19.40
2018-07-28T01:21:45.207Z,19.30
2018-07-28T01:24:15.490Z,19.30
2018-07-28T01:26:45.723Z,19.30
2018-07-28T01:29:17.869Z,19.20
2018-07-28T01:31:49.507Z,19.20
2018-07-28T01:34:19.814Z,19.10
2018-07-28T01:36:56.298Z,19.10
2018-07-28T01:39:26.561Z,19.10
2018-07-28T01:41:56.848Z,19.10
2018-07-28T01:44:27.124Z,19.10
2018-07-28T01:46:57.401Z,19.10
2018-07-28T01:49:27.700Z,19.10
2018-07-28T01:51:57.931Z,19.10
2018-07-28T01:54:28.225Z,19.10
2018-07-28T01:56:58.461Z,19.10
2018-07-28T01:59:28.740Z,19.00
2018-07-28T02:01:59.060Z,19.00
2018-07-28T02:04:29.308Z,19.10
2018-07-28T02:06:59.629Z,19.10
2018-07-28T02:09:29.907Z,19.00
2018-07-28T02:12:00.220Z,18.90
2018-07-28T02:14:30.538Z,18.90
2018-07-28T02:17:00.849Z,18.80
2018-07-28T02:19:31.146Z,18.80
2018-07-28T02:22:02.476Z,18.80
2018-07-28T02:24:32.772Z,18.70
2018-07-28T02:27:03.094Z,18.70
2018-07-28T02:29:33.388Z,18.70
2018-07-28T02:32:03.787Z,18.70
2018-07-28T02:34:34.050Z,18.70
2018-07-28T02:37:04.357Z,18.60
2018-07-28T02:39:34.679Z,18.50
2018-07-28T02:42:05.002Z,18.50
2018-07-28T02:44:35.333Z,18.50
2018-07-28T02:47:06.525Z,18.40
2018-07-28T02:49:36.805Z,18.40
2018-07-28T02:52:07.093Z,18.40
2018-07-28T02:54:37.395Z,18.30
2018-07-28T02:57:07.665Z,18.30
2018-07-28T02:59:38.014Z,18.30
2018-07-28T03:02:08.417Z,18.30
2018-07-28T03:04:38.733Z,18.20
2018-07-28T03:09:38.978Z,18.20
2018-07-28T03:12:09.692Z,18.20
2018-07-28T03:14:39.986Z,18.20
2018-07-28T03:17:10.290Z,18.20
2018-07-28T03:19:40.560Z,18.10
2018-07-28T03:22:10.862Z,18.10
2018-07-28T03:24:41.148Z,18.10
2018-07-28T03:27:11.475Z,18.10
2018-07-28T03:29:41.780Z,18.10
2018-07-28T03:32:12.035Z,18.10
2018-07-28T03:34:42.343Z,18.10
2018-07-28T03:37:12.607Z,18.00
2018-07-28T03:39:42.891Z,18.00
2018-07-28T03:42:13.212Z,18.10
2018-07-28T03:44:43.522Z,18.10
2018-07-28T03:47:13.788Z,18.10
2018-07-28T03:49:44.088Z,18.20
2018-07-28T03:52:14.369Z,18.20
2018-07-28T03:54:44.663Z,18.20
2018-07-28T03:57:14.889Z,18.20
2018-07-28T03:59:45.306Z,18.20
2018-07-28T04:02:15.642Z,18.20
2018-07-28T04:04:45.936Z,18.30
2018-07-28T04:07:16.193Z,18.30
2018-07-28T04:09:46.547Z,18.40
2018-07-28T04:12:16.814Z,18.40
2018-07-28T04:14:47.100Z,18.40
2018-07-28T04:17:17.368Z,18.50
2018-07-28T04:19:47.671Z,18.50
2018-07-28T04:22:18.165Z,18.50
2018-07-28T04:24:48.480Z,18.50
2018-07-28T04:27:18.763Z,18.50
2018-07-28T04:29:49.081Z,18.60
2018-07-28T04:32:19.360Z,18.60
2018-07-28T04:34:49.640Z,18.60
2018-07-28T04:37:20.070Z,18.70
2018-07-28T04:39:50.379Z,18.70
2018-07-28T04:42:20.672Z,18.80
2018-07-28T04:44:50.999Z,18.70
2018-07-28T04:47:21.692Z,18.80
2018-07-28T04:49:51.952Z,18.80
2018-07-28T04:52:22.311Z,18.80
2018-07-28T04:54:52.929Z,18.80
2018-07-28T04:57:23.496Z,18.90
2018-07-28T05:02:27.110Z,18.90
2018-07-28T05:04:57.888Z,19.00
2018-07-28T05:07:28.247Z,19.10
2018-07-28T05:09:58.599Z,19.10
2018-07-28T05:12:28.903Z,19.10
2018-07-28T05:14:59.171Z,19.20
2018-07-28T05:17:29.832Z,19.30
2018-07-28T05:20:00.895Z,19.30
2018-07-28T05:22:31.182Z,19.30
2018-07-28T05:25:01.447Z,19.40
2018-07-28T05:27:31.723Z,19.40
2018-07-28T05:30:01.996Z,19.40
2018-07-28T05:32:32.367Z,19.50
2018-07-28T05:35:02.617Z,19.60
2018-07-28T05:37:33.466Z,19.60
2018-07-28T05:40:04.183Z,19.60
2018-07-28T05:42:34.823Z,19.70
2018-07-28T05:45:06.036Z,19.70
2018-07-28T05:47:36.590Z,19.80
2018-07-28T05:50:08.479Z,19.80
2018-07-28T05:52:39.327Z,19.80
2018-07-28T05:55:09.969Z,19.80
2018-07-28T05:57:40.285Z,19.90
2018-07-28T06:00:10.630Z,19.90
2018-07-28T06:02:41.320Z,20.00
2018-07-28T06:05:11.754Z,20.00
2018-07-28T06:07:42.069Z,20.00
2018-07-28T06:10:12.457Z,20.10
2018-07-28T06:12:42.770Z,20.20
2018-07-28T06:15:13.088Z,20.20
2018-07-28T06:17:43.385Z,20.30
2018-07-28T06:20:13.827Z,20.40
2018-07-28T06:22:44.141Z,20.50
2018-07-28T06:25:14.485Z,20.60
2018-07-28T06:27:44.761Z,20.60
2018-07-28T06:30:15.131Z,20.70
2018-07-28T06:32:45.437Z,20.80
2018-07-28T06:35:15.744Z,20.90
2018-07-28T06:37:46.056Z,21.00
2018-07-28T06:40:16.316Z,21.00
2018-07-28T06:42:46.632Z,21.10
2018-07-28T06:45:16.954Z,21.20
2018-07-28T06:47:47.243Z,21.20
2018-07-28T06:50:17.997Z,21.30
2018-07-28T06:52:48.337Z,21.40
2018-07-28T06:57:48.627Z,21.60
2018-07-28T07:00:18.966Z,21.70
2018-07-28T07:02:49.273Z,21.70
2018-07-28T07:05:19.592Z,21.80
2018-07-28T07:07:49.878Z,21.90
2018-07-28T07:10:20.195Z,22.00
2018-07-28T07:12:59.946Z,22.10
2018-07-28T07:15:30.301Z,22.10
2018-07-28T07:18:00.637Z,22.30
2018-07-28T07:20:31.019Z,22.30
2018-07-28T07:23:01.351Z,22.40
2018-07-28T07:25:37.903Z,22.50
2018-07-28T07:28:08.305Z,22.70
2018-07-28T07:30:38.725Z,22.80
2018-07-28T07:33:09.204Z,22.90
2018-07-28T07:35:39.481Z,22.90
2018-07-28T07:38:09.780Z,23.10
2018-07-28T07:40:40.121Z,23.10
2018-07-28T07:43:10.385Z,23.20
2018-07-28T07:45:40.691Z,23.00
2018-07-28T07:48:11.063Z,23.30
2018-07-28T07:50:41.354Z,23.40
2018-07-28T07:53:11.657Z,23.50
2018-07-28T07:55:41.999Z,23.60
2018-07-28T07:58:12.304Z,23.70
2018-07-28T08:00:42.619Z,23.80
2018-07-28T08:03:13.028Z,23.80
2018-07-28T08:05:43.342Z,23.90
2018-07-28T08:08:13.697Z,23.90
2018-07-28T08:10:44.048Z,24.10
2018-07-28T08:13:14.350Z,24.10
2018-07-28T08:15:44.661Z,24.20
2018-07-28T08:18:14.952Z,24.30
2018-07-28T08:20:45.241Z,24.40
2018-07-28T08:23:15.536Z,24.40
2018-07-28T08:25:46.211Z,24.50
2018-07-28T08:28:16.552Z,24.60
2018-07-28T08:30:46.840Z,24.80
2018-07-28T08:33:17.297Z,25.00
2018-07-28T08:35:47.564Z,25.00
2018-07-28T08:38:17.880Z,25.10
2018-07-28T08:40:48.234Z,25.30
2018-07-28T08:43:18.517Z,25.40
2018-07-28T08:45:48.860Z,25.50
2018-07-28T08:48:19.140Z,25.60
2018-07-28T08:50:49.431Z,25.70
2018-07-28T08:53:19.814Z,25.80
2018-07-28T08:55:50.170Z,25.90
2018-07-28T08:58:20.517Z,26.10
2018-07-28T09:00:50.882Z,26.20
2018-07-28T09:03:21.245Z,26.40
2018-07-28T09:05:51.650Z,26.50
2018-07-28T09:08:21.884Z,26.50
2018-07-28T09:10:52.296Z,26.60
2018-07-28T09:13:22.598Z,26.80
2018-07-28T09:15:52.875Z,26.80
2018-07-28T09:18:23.159Z,26.90
2018-07-28T09:20:53.436Z,27.00
2018-07-28T09:23:23.747Z,27.00
2018-07-28T09:25:54.020Z,27.10
2018-07-28T09:28:24.329Z,27.20
2018-07-28T09:30:54.691Z,27.30
2018-07-28T09:33:24.983Z,27.30
2018-07-28T09:35:55.376Z,27.40
2018-07-28T09:38:25.709Z,27.50
2018-07-28T09:40:56.007Z,27.60
2018-07-28T09:43:26.637Z,27.60
2018-07-28T09:45:56.910Z,27.60
2018-07-28T09:48:27.225Z,27.70
2018-07-28T09:50:57.538Z,27.60
2018-07-28T09:53:27.816Z,27.80
2018-07-28T09:55:58.150Z,28.00
2018-07-28T09:58:28.513Z,28.10
2018-07-28T10:01:00.440Z,28.30
2018-07-28T10:03:30.785Z,28.50
2018-07-28T10:08:31.067Z,28.50
2018-07-28T10:11:01.408Z,28.60
2018-07-28T10:13:31.763Z,28.80
2018-07-28T10:16:02.101Z,29.00
2018-07-28T10:18:32.467Z,29.30
2018-07-28T10:21:02.767Z,29.80
2018-07-28T10:23:33.145Z,30.20
2018-07-28T10:26:03.453Z,30.40
2018-07-28T10:28:33.784Z,30.80
2018-07-28T10:31:04.105Z,31.00
2018-07-28T10:33:34.496Z,31.20
2018-07-28T10:36:04.826Z,31.40
2018-07-28T10:38:35.175Z,31.60
2018-07-28T10:41:05.651Z,31.70
2018-07-28T10:43:35.961Z,31.90
2018-07-28T10:46:06.922Z,32.20
2018-07-28T10:48:37.260Z,32.30
2018-07-28T10:51:08.398Z,32.70
2018-07-28T10:53:38.788Z,32.90
2018-07-28T10:56:09.072Z,33.10
2018-07-28T10:58:39.421Z,33.20
2018-07-28T11:01:09.710Z,33.40
2018-07-28T11:03:40.037Z,33.50
2018-07-28T11:06:10.403Z,33.80
2018-07-28T11:08:40.731Z,34.20
2018-07-28T11:11:11.622Z,34.50
2018-07-28T11:13:42.033Z,34.80
2018-07-28T11:16:12.337Z,35.20
2018-07-28T11:18:42.755Z,35.70
2018-07-28T11:21:13.181Z,35.50
2018-07-28T11:23:57.721Z,35.70
2018-07-28T11:26:28.127Z,35.90
2018-07-28T11:28:58.428Z,36.40
2018-07-28T11:31:45.572Z,36.90
2018-07-28T11:34:32.705Z,37.30
2018-07-28T11:37:20.027Z,37.50
2018-07-28T11:40:07.208Z,37.80
2018-07-28T11:42:54.364Z,38.30
2018-07-28T11:45:24.681Z,38.70
2018-07-28T11:47:55.021Z,38.30
2018-07-28T11:50:25.389Z,36.90
2018-07-28T11:52:55.763Z,35.70
2018-07-28T11:55:26.056Z,34.60
2018-07-28T11:57:56.418Z,34.00
2018-07-28T12:00:26.724Z,33.60
2018-07-28T12:02:57.119Z,34.10
2018-07-28T12:05:27.426Z,34.40
2018-07-28T12:07:57.758Z,34.90
2018-07-28T12:10:28.102Z,35.10
2018-07-28T12:12:58.421Z,34.90
2018-07-28T12:15:28.774Z,34.40
2018-07-28T12:17:59.107Z,33.90
2018-07-28T12:20:29.395Z,33.40
2018-07-28T12:22:59.769Z,33.10
2018-07-28T12:28:01.331Z,32.80
2018-07-28T12:30:31.662Z,32.70
2018-07-28T12:33:01.949Z,32.80
2018-07-28T12:35:32.235Z,32.50
2018-07-28T12:38:02.547Z,32.10
2018-07-28T12:40:32.829Z,31.90
2018-07-28T12:43:03.232Z,32.20
2018-07-28T12:45:33.557Z,32.90
2018-07-28T12:48:03.900Z,34.10
2018-07-28T12:50:34.214Z,35.10
2018-07-28T12:53:04.612Z,36.10
2018-07-28T12:55:34.932Z,37.10
2018-07-28T12:58:05.306Z,37.70
2018-07-28T13:00:35.637Z,37.90
2018-07-28T13:03:06.084Z,38.10
2018-07-28T13:05:36.336Z,38.60
2018-07-28T13:08:06.887Z,38.90
2018-07-28T13:10:37.236Z,38.50
2018-07-28T13:13:07.713Z,38.40
2018-07-28T13:15:38.034Z,38.60
2018-07-28T13:18:08.396Z,38.90
2018-07-28T13:20:38.695Z,39.40
2018-07-28T13:23:09.171Z,39.80
2018-07-28T13:25:39.493Z,40.30
2018-07-28T13:28:09.965Z,39.90
2018-07-28T13:30:40.297Z,39.50
2018-07-28T13:33:10.796Z,38.90
2018-07-28T13:35:41.054Z,38.40
2018-07-28T13:38:11.380Z,38.10
2018-07-28T13:40:41.625Z,37.60
2018-07-28T13:43:12.106Z,36.90
2018-07-28T13:45:42.381Z,35.80
2018-07-28T13:48:12.745Z,35.10
2018-07-28T13:50:43.053Z,34.70
2018-07-28T13:53:13.515Z,34.50
2018-07-28T13:55:43.776Z,34.30
2018-07-28T13:58:14.234Z,34.20
2018-07-28T14:03:15.137Z,34.00
2018-07-28T14:05:45.538Z,34.00
2018-07-28T14:08:15.873Z,33.90
2018-07-28T14:10:46.204Z,33.70
2018-07-28T14:13:16.489Z,33.60
2018-07-28T14:18:16.855Z,33.70
2018-07-28T14:20:47.085Z,33.70
2018-07-28T14:23:17.500Z,33.90
2018-07-28T14:25:48.015Z,33.80
2018-07-28T14:28:18.538Z,33.50
2018-07-28T14:35:50.141Z,33.00
2018-07-28T14:38:20.521Z,33.10
2018-07-28T14:40:50.883Z,33.20
2018-07-28T14:45:51.385Z,33.20
2018-07-28T14:50:51.632Z,33.90
2018-07-28T14:53:21.993Z,34.60
2018-07-28T14:55:52.309Z,35.10
2018-07-28T15:00:52.713Z,35.80
2018-07-28T15:03:23.121Z,35.90
2018-07-28T15:05:54.273Z,36.00
2018-07-28T15:08:24.906Z,35.60
2018-07-28T15:10:55.279Z,35.40
2018-07-28T15:15:55.671Z,36.10
2018-07-28T15:18:26.053Z,36.50
2018-07-28T15:20:56.352Z,36.70
2018-07-28T15:23:26.694Z,36.70
2018-07-28T15:25:56.973Z,36.60
2018-07-28T15:28:27.335Z,36.60
2018-07-28T15:30:57.667Z,36.80
2018-07-28T15:33:28.016Z,37.10
2018-07-28T15:35:58.325Z,37.20
2018-07-28T15:38:28.679Z,37.30
2018-07-28T15:40:59.037Z,37.00
2018-07-28T15:43:29.386Z,37.40
2018-07-28T15:45:59.710Z,37.80
2018-07-28T15:50:59.985Z,38.50
2018-07-28T15:53:30.589Z,38.00
2018-07-28T15:56:01.655Z,37.70
2018-07-28T15:58:32.112Z,37.80
2018-07-28T16:01:02.719Z,37.80
2018-07-28T16:03:33.074Z,37.20
2018-07-28T16:06:03.535Z,36.10
2018-07-28T16:08:33.707Z,35.50
2018-07-28T16:11:03.999Z,35.50
2018-07-28T16:13:34.412Z,36.30
2018-07-28T16:16:04.717Z,37.70
2018-07-28T16:18:35.198Z,38.90
2018-07-28T16:21:05.493Z,39.80
2018-07-28T16:23:35.860Z,40.50
2018-07-28T16:26:07.165Z,40.80
2018-07-28T16:28:37.530Z,40.70
2018-07-28T16:31:08.132Z,40.90
2018-07-28T16:33:38.437Z,41.30
2018-07-28T16:36:08.714Z,41.40
2018-07-28T16:38:38.983Z,41.10
2018-07-28T16:41:09.282Z,40.80
2018-07-28T16:43:39.605Z,40.70
2018-07-28T16:46:09.914Z,40.80
2018-07-28T16:48:40.297Z,40.70
2018-07-28T16:53:40.522Z,40.10
2018-07-28T16:56:10.848Z,39.80
2018-07-28T16:58:41.245Z,38.80
2018-07-28T17:01:11.693Z,37.80
2018-07-28T17:06:11.929Z,36.60
2018-07-28T17:08:42.329Z,35.80
2018-07-28T17:11:12.675Z,34.90
2018-07-28T17:13:43.040Z,34.20
2018-07-28T17:18:43.200Z,33.20
2018-07-28T17:21:13.919Z,32.80
2018-07-28T17:23:44.243Z,32.30
2018-07-28T17:26:14.553Z,31.90
2018-07-28T17:28:44.864Z,31.60
2018-07-28T17:31:15.273Z,31.30
2018-07-28T17:33:45.504Z,31.00
2018-07-28T17:36:15.929Z,30.70
2018-07-28T17:41:16.820Z,30.20
2018-07-28T17:43:47.146Z,29.90
2018-07-28T17:46:17.485Z,29.80
2018-07-28T17:48:47.740Z,29.50
2018-07-28T17:51:18.067Z,29.30
2018-07-28T17:53:48.377Z,29.10
2018-07-28T17:56:18.660Z,29.00
2018-07-28T17:58:49.012Z,28.90
2018-07-28T18:01:19.341Z,28.70
2018-07-28T18:03:49.744Z,28.60
2018-07-28T18:06:20.095Z,28.40
2018-07-28T18:08:50.581Z,28.30
2018-07-28T18:11:20.957Z,28.20
2018-07-28T18:13:51.388Z,28.00
2018-07-28T18:16:21.945Z,27.90
2018-07-28T18:18:52.320Z,27.90
2018-07-28T18:21:22.593Z,27.70
2018-07-28T18:23:52.902Z,27.60
2018-07-28T18:26:23.164Z,27.50
2018-07-28T18:28:53.528Z,26.50
2018-07-28T18:31:23.804Z,27.20
2018-07-28T18:33:54.972Z,27.10
2018-07-28T18:36:25.289Z,27.00
2018-07-28T18:38:55.665Z,26.90
2018-07-28T18:41:25.988Z,26.80
2018-07-28T18:43:56.493Z,26.70
2018-07-28T18:46:28.018Z,26.60
2018-07-28T18:48:58.443Z,26.40
2018-07-28T18:51:29.110Z,26.30
2018-07-28T18:53:59.752Z,26.30
2018-07-28T18:56:30.103Z,26.20
2018-07-28T18:59:00.304Z,26.20
2018-07-28T19:01:30.623Z,26.10
2018-07-28T19:04:00.915Z,26.00
2018-07-28T19:06:31.283Z,25.90
2018-07-28T19:09:06.708Z,25.90
2018-07-28T19:11:37.040Z,25.80
2018-07-28T19:14:12.500Z,25.80
2018-07-28T19:16:43.040Z,25.70
2018-07-28T19:19:15.413Z,25.60
2018-07-28T19:21:46.587Z,25.50
2018-07-28T19:24:16.947Z,25.40
2018-07-28T19:26:47.255Z,25.30
2018-07-28T19:29:22.602Z,25.30
2018-07-28T19:31:52.932Z,25.30
2018-07-28T19:34:23.276Z,25.30
2018-07-28T19:36:58.723Z,25.30
2018-07-28T19:39:29.035Z,25.10
2018-07-28T19:42:04.621Z,25.10
2018-07-28T19:44:34.914Z,25.00
2018-07-28T19:47:05.553Z,24.90
2018-07-28T19:49:35.933Z,24.80
2018-07-28T19:52:06.284Z,24.70
2018-07-28T19:57:06.722Z,24.70
2018-07-28T19:59:37.276Z,24.60
2018-07-28T20:02:07.612Z,24.50
2018-07-28T20:04:37.888Z,24.50
2018-07-28T20:07:08.281Z,24.40
2018-07-28T20:09:38.629Z,24.40
2018-07-28T20:12:08.977Z,24.30
2018-07-28T20:14:39.296Z,24.30
2018-07-28T20:17:09.621Z,24.20
2018-07-28T20:19:39.965Z,24.20
2018-07-28T20:22:10.249Z,24.10
2018-07-28T20:24:40.656Z,24.00
2018-07-28T20:27:11.929Z,24.00
2018-07-28T20:29:42.214Z,24.00
2018-07-28T20:32:13.015Z,23.90
2018-07-28T20:34:43.182Z,23.90
2018-07-28T20:37:13.473Z,23.90
2018-07-28T20:39:44.262Z,23.80
2018-07-28T20:42:14.563Z,23.80
2018-07-28T20:44:44.848Z,23.70
2018-07-28T20:47:15.242Z,23.70
2018-07-28T20:49:45.562Z,23.70
2018-07-28T20:52:16.806Z,23.60
2018-07-28T20:54:47.176Z,23.60
2018-07-28T20:57:17.425Z,23.60
2018-07-28T20:59:47.726Z,23.60
2018-07-28T21:02:18.014Z,23.60
2018-07-28T21:04:48.315Z,23.60
2018-07-28T21:07:18.569Z,23.50
2018-07-28T21:09:48.871Z,23.40
2018-07-28T21:12:19.128Z,23.40
2018-07-28T21:14:49.429Z,23.40
2018-07-28T21:17:19.676Z,23.30
2018-07-28T21:19:50.000Z,23.20
2018-07-28T21:22:20.356Z,23.20
2018-07-28T21:24:50.642Z,23.20
2018-07-28T21:27:21.045Z,23.20
2018-07-28T21:29:51.384Z,23.10
2018-07-28T21:32:21.688Z,23.10
2018-07-28T21:34:51.939Z,23.10
2018-07-28T21:37:22.235Z,23.00
2018-07-28T21:39:52.565Z,22.90
2018-07-28T21:42:22.902Z,22.90
2018-07-28T21:44:53.354Z,22.90
2018-07-28T21:47:23.800Z,22.90
2018-07-28T21:49:54.175Z,22.80
2018-07-28T21:52:24.477Z,22.80
2018-07-28T21:54:55.076Z,22.80
2018-07-28T21:57:25.376Z,22.80
2018-07-28T21:59:55.690Z,22.80
2018-07-28T22:02:25.990Z,22.80
2018-07-28T22:04:56.320Z,22.80
2018-07-28T22:07:26.637Z,22.80
2018-07-28T22:09:56.949Z,22.70
2018-07-28T22:12:27.291Z,22.70
2018-07-28T22:14:57.642Z,22.70
2018-07-28T22:17:27.941Z,22.70
2018-07-28T22:19:58.178Z,22.60
2018-07-28T22:22:28.548Z,22.60
2018-07-28T22:24:58.886Z,22.60
2018-07-28T22:27:29.225Z,22.50
2018-07-28T22:29:59.470Z,22.50
2018-07-28T22:32:29.795Z,22.50
2018-07-28T22:35:00.082Z,22.50
2018-07-28T22:37:30.370Z,22.40
2018-07-28T22:40:00.635Z,22.30
2018-07-28T22:42:44.002Z,22.30
2018-07-28T22:45:14.316Z,22.30
2018-07-28T22:50:14.818Z,22.20
2018-07-28T22:52:45.326Z,22.10
2018-07-28T22:55:15.701Z,22.00
2018-07-28T22:57:45.993Z,22.00
2018-07-28T23:00:16.308Z,22.00
2018-07-28T23:02:46.665Z,22.00
2018-07-28T23:05:16.985Z,22.10
2018-07-28T23:07:47.295Z,22.00
2018-07-28T23:10:17.612Z,22.00
2018-07-28T23:12:47.885Z,22.00
2018-07-28T23:15:18.174Z,22.00
2018-07-28T23:17:48.482Z,21.90
2018-07-28T23:20:18.817Z,21.90
2018-07-28T23:22:49.079Z,21.90
2018-07-28T23:25:19.404Z,21.80
2018-07-28T23:27:49.719Z,21.80
2018-07-28T23:30:20.038Z,21.80
2018-07-28T23:32:50.342Z,21.80
2018-07-28T23:35:20.687Z,21.80
2018-07-28T23:37:51.008Z,21.70
2018-07-28T23:40:21.373Z,21.70
2018-07-28T23:42:51.745Z,21.70
2018-07-28T23:45:22.088Z,21.70
2018-07-28T23:47:52.371Z,21.60
2018-07-28T23:50:22.723Z,21.60
2018-07-28T23:52:53.013Z,21.60
2018-07-28T23:55:23.309Z,21.50
2018-07-28T23:57:53.652Z,21.50
